sensor_id;sensor_type;location;lat;lon;timestamp;pressure;altitude;pressure_sealevel;temperature;humidity
63088;BME280;49173;43.164;27.786;2023-05-02T00:00:39;101109.72;;;12.18;50.99
63088;BME280;49173;43.164;27.786;2023-05-02T00:03:05;101101.63;;;12.18;50.20
63088;BME280;49173;43.164;27.786;2023-05-02T00:05:33;101110.75;;;12.16;49.07
63088;BME280;49173;43.164;27.786;2023-05-02T00:07:59;101118.03;;;12.14;48.87
63088;BME280;49173;43.164;27.786;2023-05-02T00:10:25;101115.72;;;12.06;49.68
63088;BME280;49173;43.164;27.786;2023-05-02T00:12:51;101121.09;;;12.06;49.72
63088;BME280;49173;43.164;27.786;2023-05-02T00:15:17;101119.34;;;12.05;49.09
63088;BME280;49173;43.164;27.786;2023-05-02T00:17:43;101121.25;;;12.03;48.90
63088;BME280;49173;43.164;27.786;2023-05-02T00:20:10;101120.38;;;12.02;49.54
63088;BME280;49173;43.164;27.786;2023-05-02T00:22:36;101120.59;;;11.98;49.87
63088;BME280;49173;43.164;27.786;2023-05-02T00:25:03;101131.59;;;11.93;50.65
63088;BME280;49173;43.164;27.786;2023-05-02T00:27:29;101121.03;;;11.89;51.01
63088;BME280;49173;43.164;27.786;2023-05-02T00:29:56;101128.31;;;11.87;51.31
63088;BME280;49173;43.164;27.786;2023-05-02T00:32:23;101124.88;;;11.83;51.26
63088;BME280;49173;43.164;27.786;2023-05-02T00:34:49;101127.56;;;11.83;50.52
63088;BME280;49173;43.164;27.786;2023-05-02T00:37:15;101126.66;;;11.84;49.97
63088;BME280;49173;43.164;27.786;2023-05-02T00:39:41;101126.56;;;11.86;50.34
63088;BME280;49173;43.164;27.786;2023-05-02T00:42:07;101127.53;;;11.85;49.80
63088;BME280;49173;43.164;27.786;2023-05-02T00:44:33;101127.66;;;11.81;49.81
63088;BME280;49173;43.164;27.786;2023-05-02T00:47:00;101121.53;;;11.78;50.97
63088;BME280;49173;43.164;27.786;2023-05-02T00:49:26;101118.84;;;11.78;50.60
63088;BME280;49173;43.164;27.786;2023-05-02T00:51:53;101121.41;;;11.81;50.82
63088;BME280;49173;43.164;27.786;2023-05-02T00:54:19;101122.41;;;11.78;51.03
63088;BME280;49173;43.164;27.786;2023-05-02T00:56:45;101122.41;;;11.78;50.85
63088;BME280;49173;43.164;27.786;2023-05-02T00:59:12;101123.28;;;11.79;50.70
63088;BME280;49173;43.164;27.786;2023-05-02T01:05:14;101117.78;;;11.82;50.06
63088;BME280;49173;43.164;27.786;2023-05-02T01:10:35;101120.53;;;11.80;50.19
63088;BME280;49173;43.164;27.786;2023-05-02T01:13:09;101121.53;;;11.78;49.98
63088;BME280;49173;43.164;27.786;2023-05-02T01:15:38;101124.44;;;11.73;50.94
63088;BME280;49173;43.164;27.786;2023-05-02T01:18:10;101119.50;;;11.64;51.27
63088;BME280;49173;43.164;27.786;2023-05-02T01:20:39;101120.78;;;11.55;51.32
63088;BME280;49173;43.164;27.786;2023-05-02T01:24:24;101119.19;;;11.51;51.47
63088;BME280;49173;43.164;27.786;2023-05-02T01:26:31;101127.81;;;11.39;52.89
63088;BME280;49173;43.164;27.786;2023-05-02T01:29:01;101121.06;;;11.31;53.00
63088;BME280;49173;43.164;27.786;2023-05-02T01:31:41;101117.19;;;11.17;53.28
63088;BME280;49173;43.164;27.786;2023-05-02T01:34:10;101113.31;;;11.04;53.23
63088;BME280;49173;43.164;27.786;2023-05-02T01:36:44;101114.34;;;11.02;53.58
63088;BME280;49173;43.164;27.786;2023-05-02T01:39:16;101114.41;;;11.00;54.04
63088;BME280;49173;43.164;27.786;2023-05-02T01:41:44;101112.59;;;11.00;54.30
63088;BME280;49173;43.164;27.786;2023-05-02T01:44:12;101115.19;;;11.02;53.58
63088;BME280;49173;43.164;27.786;2023-05-02T01:46:42;101114.44;;;10.98;53.87
63088;BME280;49173;43.164;27.786;2023-05-02T01:49:09;101110.09;;;10.96;53.31
63088;BME280;49173;43.164;27.786;2023-05-02T01:51:37;101105.88;;;10.90;53.22
63088;BME280;49173;43.164;27.786;2023-05-02T01:54:07;101115.13;;;10.83;53.10
63088;BME280;49173;43.164;27.786;2023-05-02T01:56:35;101113.47;;;10.81;53.70
63088;BME280;49173;43.164;27.786;2023-05-02T01:59:07;101109.38;;;10.72;52.81
63088;BME280;49173;43.164;27.786;2023-05-02T02:01:38;101105.69;;;10.75;53.57
63088;BME280;49173;43.164;27.786;2023-05-02T02:04:05;101112.09;;;10.70;53.48
63088;BME280;49173;43.164;27.786;2023-05-02T02:06:34;101113.88;;;10.71;54.19
63088;BME280;49173;43.164;27.786;2023-05-02T02:09:00;101111.19;;;10.71;54.50
63088;BME280;49173;43.164;27.786;2023-05-02T02:11:38;101112.94;;;10.72;53.15
63088;BME280;49173;43.164;27.786;2023-05-02T02:14:16;101112.94;;;10.72;53.79
63088;BME280;49173;43.164;27.786;2023-05-02T02:16:43;101120.03;;;10.73;53.85
63088;BME280;49173;43.164;27.786;2023-05-02T02:19:12;101120.31;;;10.67;54.07
63088;BME280;49173;43.164;27.786;2023-05-02T02:21:42;101119.63;;;10.62;54.87
63088;BME280;49173;43.164;27.786;2023-05-02T02:24:09;101125.00;;;10.62;54.88
63088;BME280;49173;43.164;27.786;2023-05-02T02:26:36;101121.44;;;10.62;54.76
63088;BME280;49173;43.164;27.786;2023-05-02T02:29:02;101126.81;;;10.62;54.61
63088;BME280;49173;43.164;27.786;2023-05-02T02:31:35;101118.75;;;10.62;54.15
63088;BME280;49173;43.164;27.786;2023-05-02T02:34:03;101125.41;;;10.53;54.27
63088;BME280;49173;43.164;27.786;2023-05-02T02:39:24;101121.91;;;10.51;54.12
63088;BME280;49173;43.164;27.786;2023-05-02T02:42:01;101124.72;;;10.48;54.64
63088;BME280;49173;43.164;27.786;2023-05-02T02:47:26;101126.19;;;10.55;54.74
63088;BME280;49173;43.164;27.786;2023-05-02T02:50:10;101126.28;;;10.54;54.75
63088;BME280;49173;43.164;27.786;2023-05-02T02:55:30;101130.00;;;10.50;54.05
63088;BME280;49173;43.164;27.786;2023-05-02T03:00:37;101134.72;;;10.44;54.25
63088;BME280;49173;43.164;27.786;2023-05-02T03:03:06;101138.38;;;10.42;54.81
63088;BME280;49173;43.164;27.786;2023-05-02T03:05:32;101140.44;;;10.35;55.52
63088;BME280;49173;43.164;27.786;2023-05-02T03:07:58;101137.09;;;10.30;55.47
63088;BME280;49173;43.164;27.786;2023-05-02T03:10:25;101146.09;;;10.29;55.80
63088;BME280;49173;43.164;27.786;2023-05-02T03:12:51;101139.97;;;10.26;55.83
63088;BME280;49173;43.164;27.786;2023-05-02T03:18:03;101148.81;;;10.28;56.55
63088;BME280;49173;43.164;27.786;2023-05-02T03:20:29;101147.53;;;10.14;57.15
63088;BME280;49173;43.164;27.786;2023-05-02T03:22:55;101146.81;;;10.11;57.17
63088;BME280;49173;43.164;27.786;2023-05-02T03:25:21;101151.53;;;10.04;57.20
63088;BME280;49173;43.164;27.786;2023-05-02T03:27:47;101154.41;;;10.00;57.51
63088;BME280;49173;43.164;27.786;2023-05-02T03:30:12;101153.28;;;10.05;57.73
63088;BME280;49173;43.164;27.786;2023-05-02T03:32:38;101163.84;;;10.10;58.36
63088;BME280;49173;43.164;27.786;2023-05-02T03:35:04;101167.75;;;10.25;58.64
63088;BME280;49173;43.164;27.786;2023-05-02T03:37:30;101162.19;;;10.51;58.92
63088;BME280;49173;43.164;27.786;2023-05-02T03:39:58;101160.25;;;10.75;57.91
63088;BME280;49173;43.164;27.786;2023-05-02T03:42:24;101170.50;;;11.06;57.74
63088;BME280;49173;43.164;27.786;2023-05-02T03:44:53;101167.81;;;11.26;57.77
63088;BME280;49173;43.164;27.786;2023-05-02T03:47:18;101175.69;;;11.31;58.12
63088;BME280;49173;43.164;27.786;2023-05-02T03:49:45;101189.03;;;11.33;58.49
63088;BME280;49173;43.164;27.786;2023-05-02T03:52:12;101183.56;;;11.36;57.29
63088;BME280;49173;43.164;27.786;2023-05-02T03:54:38;101190.31;;;11.44;56.47
63088;BME280;49173;43.164;27.786;2023-05-02T03:57:04;101195.59;;;11.66;57.56
63088;BME280;49173;43.164;27.786;2023-05-02T03:59:33;101194.09;;;12.17;56.70
63088;BME280;49173;43.164;27.786;2023-05-02T04:02:00;101194.63;;;12.79;55.21
63088;BME280;49173;43.164;27.786;2023-05-02T04:04:26;101193.22;;;13.24;53.15
63088;BME280;49173;43.164;27.786;2023-05-02T04:06:51;101201.84;;;13.48;53.40
63088;BME280;49173;43.164;27.786;2023-05-02T04:09:17;101203.22;;;13.88;51.28
63088;BME280;49173;43.164;27.786;2023-05-02T04:11:47;101201.78;;;14.45;51.61
63088;BME280;49173;43.164;27.786;2023-05-02T04:14:13;101198.31;;;14.89;48.87
63088;BME280;49173;43.164;27.786;2023-05-02T04:16:39;101192.38;;;15.13;47.78
63088;BME280;49173;43.164;27.786;2023-05-02T04:19:05;101202.25;;;15.28;49.33
63088;BME280;49173;43.164;27.786;2023-05-02T04:21:30;101203.34;;;15.39;48.73
63088;BME280;49173;43.164;27.786;2023-05-02T04:23:57;101203.16;;;15.43;49.37
63088;BME280;49173;43.164;27.786;2023-05-02T04:26:22;101200.38;;;15.44;48.86
63088;BME280;49173;43.164;27.786;2023-05-02T04:28:48;101194.16;;;15.42;47.03
63088;BME280;49173;43.164;27.786;2023-05-02T04:31:14;101201.16;;;15.46;47.40
63088;BME280;49173;43.164;27.786;2023-05-02T04:33:40;101194.50;;;15.52;46.23
63088;BME280;49173;43.164;27.786;2023-05-02T04:36:08;101198.44;;;15.60;47.05
63088;BME280;49173;43.164;27.786;2023-05-02T04:38:35;101198.97;;;15.67;48.53
63088;BME280;49173;43.164;27.786;2023-05-02T04:41:00;101197.50;;;15.76;48.97
63088;BME280;49173;43.164;27.786;2023-05-02T04:43:26;101204.16;;;15.84;47.06
63088;BME280;49173;43.164;27.786;2023-05-02T04:45:52;101197.59;;;15.88;47.85
63088;BME280;49173;43.164;27.786;2023-05-02T04:48:18;101206.22;;;15.95;47.78
63088;BME280;49173;43.164;27.786;2023-05-02T04:50:44;101204.09;;;16.00;47.86
63088;BME280;49173;43.164;27.786;2023-05-02T04:53:11;101215.28;;;16.08;48.46
63088;BME280;49173;43.164;27.786;2023-05-02T04:55:37;101209.38;;;16.16;48.38
63088;BME280;49173;43.164;27.786;2023-05-02T04:58:02;101207.69;;;16.28;48.09
63088;BME280;49173;43.164;27.786;2023-05-02T05:00:43;101213.53;;;16.48;49.07
63088;BME280;49173;43.164;27.786;2023-05-02T05:03:09;101212.72;;;16.61;48.71
63088;BME280;49173;43.164;27.786;2023-05-02T05:05:35;101218.72;;;16.66;47.55
63088;BME280;49173;43.164;27.786;2023-05-02T05:08:00;101212.53;;;16.78;47.97
63088;BME280;49173;43.164;27.786;2023-05-02T05:10:26;101211.59;;;16.92;48.07
63088;BME280;49173;43.164;27.786;2023-05-02T05:12:52;101206.28;;;17.03;46.35
63088;BME280;49173;43.164;27.786;2023-05-02T05:15:18;101209.66;;;17.19;45.38
63088;BME280;49173;43.164;27.786;2023-05-02T05:17:47;101214.81;;;17.37;46.07
63088;BME280;49173;43.164;27.786;2023-05-02T05:20:12;101213.16;;;17.47;44.71
63088;BME280;49173;43.164;27.786;2023-05-02T05:22:39;101206.56;;;17.51;43.80
63088;BME280;49173;43.164;27.786;2023-05-02T05:25:09;101214.03;;;17.60;43.84
63088;BME280;49173;43.164;27.786;2023-05-02T05:27:35;101212.22;;;17.73;45.63
63088;BME280;49173;43.164;27.786;2023-05-02T05:30:03;101220.38;;;17.86;46.21
63088;BME280;49173;43.164;27.786;2023-05-02T05:32:29;101223.09;;;17.99;46.05
63088;BME280;49173;43.164;27.786;2023-05-02T05:34:55;101221.09;;;18.14;46.53
63088;BME280;49173;43.164;27.786;2023-05-02T05:37:21;101220.28;;;18.24;45.78
63088;BME280;49173;43.164;27.786;2023-05-02T05:39:47;101229.66;;;18.33;45.54
63088;BME280;49173;43.164;27.786;2023-05-02T05:42:12;101221.13;;;18.37;45.65
63088;BME280;49173;43.164;27.786;2023-05-02T05:44:38;101223.72;;;18.39;45.18
63088;BME280;49173;43.164;27.786;2023-05-02T05:47:04;101223.94;;;18.49;44.80
63088;BME280;49173;43.164;27.786;2023-05-02T05:49:30;101219.53;;;18.59;45.70
63088;BME280;49173;43.164;27.786;2023-05-02T05:51:57;101231.59;;;18.67;43.93
63088;BME280;49173;43.164;27.786;2023-05-02T05:54:23;101232.00;;;18.74;43.98
63088;BME280;49173;43.164;27.786;2023-05-02T05:56:49;101236.13;;;18.80;41.30
63088;BME280;49173;43.164;27.786;2023-05-02T05:59:15;101231.38;;;18.94;41.53
63088;BME280;49173;43.164;27.786;2023-05-02T06:01:41;101227.19;;;19.02;40.85
63088;BME280;49173;43.164;27.786;2023-05-02T06:04:07;101233.56;;;19.13;40.49
63088;BME280;49173;43.164;27.786;2023-05-02T06:06:33;101238.91;;;19.26;40.98
63088;BME280;49173;43.164;27.786;2023-05-02T06:08:59;101232.88;;;19.45;40.89
63088;BME280;49173;43.164;27.786;2023-05-02T06:11:25;101237.41;;;19.57;40.88
63088;BME280;49173;43.164;27.786;2023-05-02T06:13:52;101234.13;;;19.76;41.19
63088;BME280;49173;43.164;27.786;2023-05-02T06:16:18;101235.22;;;19.85;40.11
63088;BME280;49173;43.164;27.786;2023-05-02T06:18:45;101237.34;;;19.92;41.46
63088;BME280;49173;43.164;27.786;2023-05-02T06:21:11;101231.91;;;20.03;41.38
63088;BME280;49173;43.164;27.786;2023-05-02T06:23:37;101228.78;;;20.19;42.17
63088;BME280;49173;43.164;27.786;2023-05-02T06:26:04;101233.84;;;20.35;40.92
63088;BME280;49173;43.164;27.786;2023-05-02T06:28:30;101226.69;;;20.45;39.09
63088;BME280;49173;43.164;27.786;2023-05-02T06:30:57;101231.38;;;20.54;39.27
63088;BME280;49173;43.164;27.786;2023-05-02T06:33:23;101234.31;;;20.63;37.98
63088;BME280;49173;43.164;27.786;2023-05-02T06:35:52;101232.44;;;20.74;37.65
63088;BME280;49173;43.164;27.786;2023-05-02T06:38:18;101237.47;;;20.90;38.30
63088;BME280;49173;43.164;27.786;2023-05-02T06:40:44;101233.69;;;21.02;37.29
63088;BME280;49173;43.164;27.786;2023-05-02T06:43:11;101228.44;;;21.10;36.55
63088;BME280;49173;43.164;27.786;2023-05-02T06:45:37;101229.13;;;21.24;36.06
63088;BME280;49173;43.164;27.786;2023-05-02T06:48:03;101239.03;;;21.36;35.77
63088;BME280;49173;43.164;27.786;2023-05-02T06:50:29;101234.16;;;21.39;36.09
63088;BME280;49173;43.164;27.786;2023-05-02T06:52:55;101239.09;;;21.46;37.49
63088;BME280;49173;43.164;27.786;2023-05-02T06:55:21;101248.88;;;21.48;36.89
63088;BME280;49173;43.164;27.786;2023-05-02T06:57:50;101253.22;;;21.51;36.27
63088;BME280;49173;43.164;27.786;2023-05-02T07:00:17;101246.38;;;21.35;34.61
63088;BME280;49173;43.164;27.786;2023-05-02T07:02:46;101238.56;;;21.20;33.66
63088;BME280;49173;43.164;27.786;2023-05-02T07:05:13;101245.41;;;21.14;32.41
63088;BME280;49173;43.164;27.786;2023-05-02T07:07:42;101250.78;;;21.16;32.63
63088;BME280;49173;43.164;27.786;2023-05-02T07:10:08;101247.53;;;21.22;32.12
63088;BME280;49173;43.164;27.786;2023-05-02T07:12:35;101253.44;;;21.27;32.26
63088;BME280;49173;43.164;27.786;2023-05-02T07:15:01;101249.25;;;21.23;32.12
63088;BME280;49173;43.164;27.786;2023-05-02T07:17:27;101248.75;;;21.29;31.87
63088;BME280;49173;43.164;27.786;2023-05-02T07:19:53;101249.81;;;21.37;33.97
63088;BME280;49173;43.164;27.786;2023-05-02T07:22:19;101246.69;;;21.42;34.27
63088;BME280;49173;43.164;27.786;2023-05-02T07:24:45;101247.16;;;21.47;35.10
63088;BME280;49173;43.164;27.786;2023-05-02T07:27:12;101251.03;;;21.45;34.52
63088;BME280;49173;43.164;27.786;2023-05-02T07:29:39;101253.66;;;21.35;35.31
63088;BME280;49173;43.164;27.786;2023-05-02T07:32:07;101255.88;;;21.41;36.85
63088;BME280;49173;43.164;27.786;2023-05-02T07:34:32;101260.09;;;21.45;36.82
63088;BME280;49173;43.164;27.786;2023-05-02T07:36:58;101258.69;;;21.30;36.82
63088;BME280;49173;43.164;27.786;2023-05-02T07:39:24;101272.91;;;21.01;37.75
63088;BME280;49173;43.164;27.786;2023-05-02T07:41:51;101272.72;;;20.82;38.56
63088;BME280;49173;43.164;27.786;2023-05-02T07:44:17;101276.88;;;20.54;39.68
63088;BME280;49173;43.164;27.786;2023-05-02T07:46:43;101268.78;;;20.41;41.33
63088;BME280;49173;43.164;27.786;2023-05-02T07:49:08;101276.00;;;20.53;40.54
63088;BME280;49173;43.164;27.786;2023-05-02T07:51:34;101270.78;;;20.62;41.07
63088;BME280;49173;43.164;27.786;2023-05-02T07:54:00;101261.72;;;20.72;40.53
63088;BME280;49173;43.164;27.786;2023-05-02T07:56:27;101261.53;;;20.85;40.91
63088;BME280;49173;43.164;27.786;2023-05-02T07:58:52;101271.84;;;20.81;41.84
63088;BME280;49173;43.164;27.786;2023-05-02T08:01:18;101270.78;;;20.62;41.05
63088;BME280;49173;43.164;27.786;2023-05-02T08:03:45;101266.09;;;20.52;40.90
63088;BME280;49173;43.164;27.786;2023-05-02T08:06:11;101271.03;;;20.59;40.55
63088;BME280;49173;43.164;27.786;2023-05-02T08:08:37;101268.13;;;20.71;41.09
63088;BME280;49173;43.164;27.786;2023-05-02T08:11:03;101272.22;;;20.88;37.85
63088;BME280;49173;43.164;27.786;2023-05-02T08:13:29;101268.56;;;20.99;34.72
63088;BME280;49173;43.164;27.786;2023-05-02T08:15:55;101278.97;;;21.05;33.56
63088;BME280;49173;43.164;27.786;2023-05-02T08:18:24;101261.72;;;21.04;33.97
63088;BME280;49173;43.164;27.786;2023-05-02T08:20:50;101279.06;;;21.15;34.45
63088;BME280;49173;43.164;27.786;2023-05-02T08:23:16;101261.56;;;21.17;30.92
63088;BME280;49173;43.164;27.786;2023-05-02T08:28:07;101268.19;;;21.03;30.72
63088;BME280;49173;43.164;27.786;2023-05-02T08:30:33;101270.53;;;21.08;30.49
63088;BME280;49173;43.164;27.786;2023-05-02T08:32:59;101271.63;;;21.05;32.56
63088;BME280;49173;43.164;27.786;2023-05-02T08:35:25;101272.41;;;21.07;31.06
63088;BME280;49173;43.164;27.786;2023-05-02T08:37:53;101273.38;;;21.06;28.44
63088;BME280;49173;43.164;27.786;2023-05-02T08:40:19;101275.66;;;21.01;28.94
63088;BME280;49173;43.164;27.786;2023-05-02T08:42:46;101274.50;;;21.04;31.80
63088;BME280;49173;43.164;27.786;2023-05-02T08:45:13;101269.91;;;21.04;28.57
63088;BME280;49173;43.164;27.786;2023-05-02T08:47:42;101268.66;;;21.08;30.78
63088;BME280;49173;43.164;27.786;2023-05-02T08:50:09;101269.13;;;21.13;29.66
63088;BME280;49173;43.164;27.786;2023-05-02T08:52:37;101266.66;;;21.10;29.16
63088;BME280;49173;43.164;27.786;2023-05-02T08:55:05;101262.22;;;21.09;29.28
63088;BME280;49173;43.164;27.786;2023-05-02T08:57:31;101263.59;;;21.04;30.03
63088;BME280;49173;43.164;27.786;2023-05-02T08:59:58;101258.50;;;20.99;28.50
63088;BME280;49173;43.164;27.786;2023-05-02T09:05:27;101265.47;;;20.92;29.31
63088;BME280;49173;43.164;27.786;2023-05-02T09:07:57;101265.97;;;20.97;32.52
63088;BME280;49173;43.164;27.786;2023-05-02T09:10:24;101271.44;;;20.97;32.05
63088;BME280;49173;43.164;27.786;2023-05-02T09:12:53;101271.28;;;20.99;32.35
63088;BME280;49173;43.164;27.786;2023-05-02T09:15:19;101272.78;;;21.03;30.45
63088;BME280;49173;43.164;27.786;2023-05-02T09:17:46;101265.97;;;20.97;29.32
63088;BME280;49173;43.164;27.786;2023-05-02T09:20:14;101267.75;;;20.87;29.97
63088;BME280;49173;43.164;27.786;2023-05-02T09:22:48;101264.03;;;20.77;28.58
63088;BME280;49173;43.164;27.786;2023-05-02T09:25:15;101268.41;;;20.68;28.36
63088;BME280;49173;43.164;27.786;2023-05-02T09:27:48;101264.91;;;20.77;30.97
63088;BME280;49173;43.164;27.786;2023-05-02T09:32:47;101255.34;;;20.83;29.44
63088;BME280;49173;43.164;27.786;2023-05-02T09:35:16;101253.00;;;20.78;28.82
63088;BME280;49173;43.164;27.786;2023-05-02T09:37:50;101257.59;;;20.78;30.22
63088;BME280;49173;43.164;27.786;2023-05-02T09:40:16;101263.44;;;20.73;30.66
63088;BME280;49173;43.164;27.786;2023-05-02T09:42:42;101263.31;;;20.75;30.79
63088;BME280;49173;43.164;27.786;2023-05-02T09:45:08;101267.03;;;20.74;30.49
63088;BME280;49173;43.164;27.786;2023-05-02T09:47:34;101263.31;;;20.75;30.65
63088;BME280;49173;43.164;27.786;2023-05-02T09:50:01;101260.66;;;20.84;31.66
63088;BME280;49173;43.164;27.786;2023-05-02T09:52:28;101260.88;;;20.93;30.46
63088;BME280;49173;43.164;27.786;2023-05-02T09:54:54;101261.50;;;20.96;30.22
63088;BME280;49173;43.164;27.786;2023-05-02T09:57:20;101263.97;;;20.99;30.48
63088;BME280;49173;43.164;27.786;2023-05-02T09:59:55;101272.91;;;21.01;31.25
63088;BME280;49173;43.164;27.786;2023-05-02T10:02:23;101270.28;;;21.00;30.80
63088;BME280;49173;43.164;27.786;2023-05-02T10:04:51;101267.19;;;21.04;30.91
63088;BME280;49173;43.164;27.786;2023-05-02T10:07:18;101264.16;;;21.19;31.39
63088;BME280;49173;43.164;27.786;2023-05-02T10:09:45;101270.59;;;21.29;31.81
63088;BME280;49173;43.164;27.786;2023-05-02T10:12:15;101262.75;;;21.35;30.19
63088;BME280;49173;43.164;27.786;2023-05-02T10:14:48;101258.88;;;21.38;29.86
63088;BME280;49173;43.164;27.786;2023-05-02T10:17:20;101260.81;;;21.47;30.75
63088;BME280;49173;43.164;27.786;2023-05-02T10:22:21;101267.34;;;21.56;30.46
63088;BME280;49173;43.164;27.786;2023-05-02T10:24:48;101258.94;;;21.48;29.56
63088;BME280;49173;43.164;27.786;2023-05-02T10:27:15;101254.97;;;21.52;29.37
63088;BME280;49173;43.164;27.786;2023-05-02T10:29:41;101254.81;;;21.53;30.12
63088;BME280;49173;43.164;27.786;2023-05-02T10:32:09;101259.41;;;21.53;31.95
63088;BME280;49173;43.164;27.786;2023-05-02T10:34:35;101246.66;;;21.63;30.87
63088;BME280;49173;43.164;27.786;2023-05-02T10:37:02;101255.00;;;21.61;28.79
63088;BME280;49173;43.164;27.786;2023-05-02T10:39:28;101254.28;;;21.59;31.19
63088;BME280;49173;43.164;27.786;2023-05-02T10:41:57;101253.34;;;21.70;30.63
63088;BME280;49173;43.164;27.786;2023-05-02T10:44:38;101254.16;;;21.91;31.60
63088;BME280;49173;43.164;27.786;2023-05-02T10:47:30;101254.78;;;21.95;28.32
63088;BME280;49173;43.164;27.786;2023-05-02T10:50:02;101260.44;;;22.03;29.19
63088;BME280;49173;43.164;27.786;2023-05-02T10:52:36;101255.25;;;22.00;30.77
63088;BME280;49173;43.164;27.786;2023-05-02T10:55:22;101255.56;;;22.07;28.81
63088;BME280;49173;43.164;27.786;2023-05-02T11:00:30;101250.03;;;21.97;28.18
63088;BME280;49173;43.164;27.786;2023-05-02T11:02:57;101256.91;;;21.91;30.65
63088;BME280;49173;43.164;27.786;2023-05-02T11:05:24;101264.53;;;21.88;28.26
63088;BME280;49173;43.164;27.786;2023-05-02T11:10:39;101257.88;;;21.60;28.17
63088;BME280;49173;43.164;27.786;2023-05-02T11:13:05;101261.00;;;21.76;28.35
63088;BME280;49173;43.164;27.786;2023-05-02T11:20:27;101249.78;;;22.00;28.21
63088;BME280;49173;43.164;27.786;2023-05-02T11:22:55;101253.09;;;22.04;27.11
63088;BME280;49173;43.164;27.786;2023-05-02T11:25:32;101254.06;;;21.93;28.16
63088;BME280;49173;43.164;27.786;2023-05-02T11:27:59;101246.28;;;21.98;29.02
63088;BME280;49173;43.164;27.786;2023-05-02T11:30:40;101251.59;;;21.90;28.93
63088;BME280;49173;43.164;27.786;2023-05-02T11:35:34;101249.50;;;22.03;29.13
63088;BME280;49173;43.164;27.786;2023-05-02T11:38:03;101251.72;;;22.09;27.86
63088;BME280;49173;43.164;27.786;2023-05-02T11:40:30;101259.63;;;22.12;28.30
63088;BME280;49173;43.164;27.786;2023-05-02T11:42:57;101244.97;;;22.13;27.58
63088;BME280;49173;43.164;27.786;2023-05-02T11:45:35;101249.09;;;22.08;26.68
63088;BME280;49173;43.164;27.786;2023-05-02T11:48:05;101246.56;;;22.16;30.28
63088;BME280;49173;43.164;27.786;2023-05-02T11:51:00;101242.97;;;22.15;28.57
63088;BME280;49173;43.164;27.786;2023-05-02T11:53:28;101246.16;;;22.20;28.09
63088;BME280;49173;43.164;27.786;2023-05-02T11:55:59;101248.16;;;22.18;29.70
63088;BME280;49173;43.164;27.786;2023-05-02T11:58:28;101257.28;;;22.38;30.92
63088;BME280;49173;43.164;27.786;2023-05-02T12:00:54;101257.59;;;22.45;28.70
63088;BME280;49173;43.164;27.786;2023-05-02T12:03:29;101243.16;;;22.33;27.24
63088;BME280;49173;43.164;27.786;2023-05-02T12:06:16;101239.72;;;22.41;29.15
63088;BME280;49173;43.164;27.786;2023-05-02T12:08:44;101260.97;;;22.58;29.34
63088;BME280;49173;43.164;27.786;2023-05-02T12:11:14;101248.56;;;22.54;28.61
63088;BME280;49173;43.164;27.786;2023-05-02T12:13:48;101250.25;;;22.45;26.74
63088;BME280;49173;43.164;27.786;2023-05-02T12:16:15;101251.47;;;22.62;28.80
63088;BME280;49173;43.164;27.786;2023-05-02T12:18:41;101250.25;;;22.45;27.23
63088;BME280;49173;43.164;27.786;2023-05-02T12:21:08;101246.50;;;22.37;27.11
63088;BME280;49173;43.164;27.786;2023-05-02T12:23:34;101243.00;;;22.25;27.07
63088;BME280;49173;43.164;27.786;2023-05-02T12:26:18;101251.34;;;22.24;29.12
63088;BME280;49173;43.164;27.786;2023-05-02T12:28:51;101245.88;;;22.24;27.27
63088;BME280;49173;43.164;27.786;2023-05-02T12:31:18;101237.50;;;22.15;28.14
63088;BME280;49173;43.164;27.786;2023-05-02T12:33:45;101231.63;;;22.20;27.30
63088;BME280;49173;43.164;27.786;2023-05-02T12:36:19;101240.13;;;22.27;28.78
63088;BME280;49173;43.164;27.786;2023-05-02T12:38:55;101229.53;;;22.53;29.02
63088;BME280;49173;43.164;27.786;2023-05-02T12:41:35;101230.16;;;22.56;27.83
63088;BME280;49173;43.164;27.786;2023-05-02T12:44:02;101234.03;;;22.63;28.19
63088;BME280;49173;43.164;27.786;2023-05-02T12:46:28;101231.47;;;22.81;29.24
63088;BME280;49173;43.164;27.786;2023-05-02T12:49:21;101227.72;;;22.82;27.74
63088;BME280;49173;43.164;27.786;2023-05-02T12:51:52;101225.03;;;23.01;27.94
63088;BME280;49173;43.164;27.786;2023-05-02T12:54:20;101216.66;;;23.03;27.49
63088;BME280;49173;43.164;27.786;2023-05-02T12:56:46;101225.13;;;22.81;26.24
63088;BME280;49173;43.164;27.786;2023-05-02T12:59:32;101224.13;;;22.82;27.17
63088;BME280;49173;43.164;27.786;2023-05-02T13:01:58;101220.47;;;22.62;26.81
63088;BME280;49173;43.164;27.786;2023-05-02T13:04:37;101220.97;;;22.77;28.75
63088;BME280;49173;43.164;27.786;2023-05-02T13:07:04;101222.13;;;22.84;26.64
63088;BME280;49173;43.164;27.786;2023-05-02T13:09:30;101227.34;;;22.87;28.42
63088;BME280;49173;43.164;27.786;2023-05-02T13:11:56;101226.47;;;22.96;28.40
63088;BME280;49173;43.164;27.786;2023-05-02T13:14:24;101225.75;;;22.94;27.77
63088;BME280;49173;43.164;27.786;2023-05-02T13:16:50;101230.34;;;22.84;27.43
63088;BME280;49173;43.164;27.786;2023-05-02T13:19:21;101225.28;;;22.69;28.26
63088;BME280;49173;43.164;27.786;2023-05-02T13:21:49;101231.72;;;22.59;27.68
63088;BME280;49173;43.164;27.786;2023-05-02T13:24:15;101219.50;;;22.63;27.21
63088;BME280;49173;43.164;27.786;2023-05-02T13:26:45;101215.91;;;22.82;29.23
63088;BME280;49173;43.164;27.786;2023-05-02T13:29:12;101220.28;;;22.94;29.35